الصفحة الرئيسية
METAR-TAF:

METAR-TAF

مطار :

Çorlu, تركيا

دائرة عرض: 41-08N, خط طول: 027-55E, ارتفاع: 173 متر

مراقبة الطقس الحالي

تاريخ ووقت الإصدار 53 دقيقة قبل الساعة 00:50UTC
ريح 14 عقدة من الشمال
درجة الحرارة 23°درجة مئوية
الرطوبة 89%
ضغط 1010 hPa
الرؤية 10 كم أو أكثر
الغيوم لا تقل 1500 م ولا وجود لمزنة ركامية السحاب الأسود

METAR: LTBU 140050Z 35014KT CAVOK 23/21 Q1010 RMK RWY22 36011KT

زمن: 04:43 (01:43 UTC)

توقعات

تاريخ ووقت الإصدار 3ساعات و 3 دقيقة قبل الساعة 22:40UTC
التوقعات صالحة من14 الساعة 00 UTC إلى 14 الساعة 24 UTC
ريح 9 عقدة من الشمال
الرؤية 10 كم أو أكثر
غيوم قليلة على ارتفاع 2500 قدم
أصبح
من 14 الساعة 04 UTC إلى 14 الساعة 07 UTC
ريح 18 عقدة من الشمال/الشمال الشرقي تتزايد حتى 28 عقدة
الرؤية 10 كم أو أكثر
الغيوم لا تقل 1500 م ولا وجود لمزنة ركامية السحاب الأسود
أصبح
من 14 الساعة 17 UTC إلى 14 الساعة 20 UTC
ريح 10 عقدة من الشمال

TAF: LTBU 132240Z 1400/1424 01009KT 9999 FEW025 BECMG 1404/1407 03018G28KT CAVOK BECMG 1417/1420 01010KT

أرصاد الطقس والتوقعات من أكثر من 4000 مطار (تقارير الطقس للمطار METAR والتنبؤ بالطقس بالمطارTAF).

المحطات المتاحة هي النقط الصفراء والحمراء على الخريطة.

حرك المؤشر فوق النقطة لمعرفة اسم المحطة.

ثم انقر لمعرفة أرصاد وتوقعات الطقس.

لتغيير الخارطة: اضغط على الأزرار الخضراء مع رمز الصليب الأسود للتكبير. على الزر الأخضر مع شرطة للتصغير، أو على الأسهم الخضراء للخرائط المجاورة.


METAR-TAF: